Long Island, KS (67647)

2:05 AM CDT on July 12, 2014 (GMT -0500)
Sarrada Farms 0.1 mi W (KKSLOGAN2) Elev 2021 ft | 39.66 °N, 99.58 °W | Change Station

Current weather conditions updated 2 seconds ago

Scattered Clouds
Scattered Clouds
79.2 °F
Feels Like 80 °F
N
12.1
Wind Variable Wind from SW
Gusts 15.0 mph

Today is forecast to be Cooler than yesterday. Scattered thunderstorms possible tonight.

Today
High -- | Low -- °F
--% Chance of Precip.
Yesterday
High -- | Low -- °F
Precip. -- in
6:19 AM 9:07 PM
Full, 100% visible
Pressure 30.02 in
Visibility 10.0 miles
Clouds Scattered Clouds 12000 ft
Heat Index 80 °F
Dew Point 60 °F
Humidity 52%
Rainfall 0.00 in
Snow Depth Not available.
UV 0 out of 12
Pollen 4.00 out of 12
Air Quality Not available.
Flu Activity No Activity
METAR KHDE 120655Z AUTO 24008KT 10SM SCT120 24/16 A3002 RMK AO2 LTG DSNT N T02410158

More Conditions Fewer Conditions

Pressure 30.02 in
Visibility 10.0 miles
Clouds Scattered Clouds 12000 ft
Heat Index 80 °F
Dew Point 60 °F
Humidity 52%
Rainfall 0.00 in
Snow Depth Not available.
UV 0 out of 12
Pollen 4.00 out of 12
Air Quality Not available.
Flu Activity No Activity
METAR KHDE 120655Z AUTO 24008KT 10SM SCT120 24/16 A3002 RMK AO2 LTG DSNT N T02410158

More Conditions Fewer Conditions

10-Day Weather Forecast

Almanac

Astronomy

Jul. 12, 2014 Rise Set
Actual Time 6:19 AM CDT 9:07 PM CDT
Civil Twilight 5:47 AM CDT 9:39 PM CDT
Nautical Twilight 5:07 AM CDT 10:19 PM CDT
Astronomical Twilight 4:21 AM CDT 11:05 PM CDT
Moon 9:10 PM CDT 6:41 AM CDT
Length of Visible Light 15h 51m
Length of Day
14h 47m
Tomorrow will be 1m 13s shorter.
Full, 100% of the Moon is Illuminated
Today
Full
Jul 12
Full
Jul 18
Last Quarter
Jul 26
New
Aug 3
First Quarter

Today's Extremes

State Highs State Lows

Community

WunderPhotos

Upload Photos

1,732,718 photos uploaded!

Nearby

Snow Depth

Station Depth Elevation
No new snow has been reported.

Earthquake Activity

City Distance Mag. Time & Date
No recent earthquake activity has been reported nearby.
Minimum magnitude displayed is 2.5.

Coastal Water Temperatures

Place Temperature
No Stations Reporting

Nearby Weather Stations

Station Location Temp. Heat Index Dew Point Humidity Wind Precip. Elev Updated Type
MesoWest PHILLIPSBURG , Phillipsburg, KS 82 °F 82 °F 59 °F 45% South  at  11 mph 0.00 in / hr 1985 ft 12:00 AM CDT MADIS
Sarrada Farms 0.1 mi W, Logan, KS 79.2 °F 80 °F 60 °F 52% SW  at  12.1 mph 0.00 in / hr 2021 ft 2:05 AM CDT Rapid Fire

Show More Stations Show Fewer Stations